sensor_id;sensor_type;location;lat;lon;timestamp;pressure;altitude;pressure_sealevel;temperature;humidity
49072;BME280;52656;52.610;10.236;2023-07-13T00:02:25;100827.03;;;17.74;71.82
49072;BME280;52656;52.610;10.236;2023-07-13T00:04:52;100825.44;;;17.71;70.11
49072;BME280;52656;52.610;10.236;2023-07-13T00:07:17;100832.91;;;17.66;70.53
49072;BME280;52656;52.610;10.236;2023-07-13T00:09:46;100848.63;;;17.58;70.92
49072;BME280;52656;52.610;10.236;2023-07-13T00:12:32;100851.06;;;17.48;72.17
49072;BME280;52656;52.610;10.236;2023-07-13T00:14:59;100857.91;;;17.52;71.43
49072;BME280;52656;52.610;10.236;2023-07-13T00:17:26;100846.78;;;17.46;71.83
49072;BME280;52656;52.610;10.236;2023-07-13T00:19:52;100846.56;;;17.49;71.56
49072;BME280;52656;52.610;10.236;2023-07-13T00:22:18;100846.31;;;17.39;72.24
49072;BME280;52656;52.610;10.236;2023-07-13T00:24:44;100854.44;;;17.38;72.33
49072;BME280;52656;52.610;10.236;2023-07-13T00:27:10;100855.97;;;17.42;71.78
49072;BME280;52656;52.610;10.236;2023-07-13T00:29:36;100857.13;;;17.38;72.11
49072;BME280;52656;52.610;10.236;2023-07-13T00:32:03;100854.91;;;17.44;71.62
49072;BME280;52656;52.610;10.236;2023-07-13T00:34:29;100846.28;;;17.54;70.58
49072;BME280;52656;52.610;10.236;2023-07-13T00:36:54;100854.06;;;17.57;70.83
49072;BME280;52656;52.610;10.236;2023-07-13T00:39:19;100859.66;;;17.54;70.95
49072;BME280;52656;52.610;10.236;2023-07-13T00:41:46;100860.34;;;17.43;71.29
49072;BME280;52656;52.610;10.236;2023-07-13T00:44:16;100862.06;;;17.44;71.00
49072;BME280;52656;52.610;10.236;2023-07-13T00:46:42;100857.91;;;17.40;71.15
49072;BME280;52656;52.610;10.236;2023-07-13T00:49:10;100857.31;;;17.35;71.42
49072;BME280;52656;52.610;10.236;2023-07-13T00:51:43;100856.03;;;17.27;71.73
49072;BME280;52656;52.610;10.236;2023-07-13T00:54:17;100849.34;;;17.20;71.87
49072;BME280;52656;52.610;10.236;2023-07-13T00:56:44;100851.16;;;17.20;71.40
49072;BME280;52656;52.610;10.236;2023-07-13T00:59:11;100856.81;;;17.15;71.34
49072;BME280;52656;52.610;10.236;2023-07-13T01:01:37;100856.28;;;17.10;71.53
49072;BME280;52656;52.610;10.236;2023-07-13T01:04:04;100854.00;;;17.04;71.37
49072;BME280;52656;52.610;10.236;2023-07-13T01:06:36;100863.38;;;16.97;72.00
49072;BME280;52656;52.610;10.236;2023-07-13T01:09:03;100865.50;;;16.92;72.45
49072;BME280;52656;52.610;10.236;2023-07-13T01:11:29;100867.50;;;16.88;72.74
49072;BME280;52656;52.610;10.236;2023-07-13T01:13:54;100866.19;;;16.81;73.21
49072;BME280;52656;52.610;10.236;2023-07-13T01:16:24;100873.53;;;16.63;75.60
49072;BME280;52656;52.610;10.236;2023-07-13T01:18:49;100871.81;;;16.62;74.18
49072;BME280;52656;52.610;10.236;2023-07-13T01:21:15;100870.47;;;16.55;76.14
49072;BME280;52656;52.610;10.236;2023-07-13T01:23:40;100863.19;;;16.57;74.33
49072;BME280;52656;52.610;10.236;2023-07-13T01:26:06;100866.47;;;16.62;73.93
49072;BME280;52656;52.610;10.236;2023-07-13T01:28:31;100869.03;;;16.64;74.14
49072;BME280;52656;52.610;10.236;2023-07-13T01:31:02;100873.31;;;16.66;73.80
49072;BME280;52656;52.610;10.236;2023-07-13T01:33:27;100869.53;;;16.70;75.06
49072;BME280;52656;52.610;10.236;2023-07-13T01:35:53;100873.94;;;16.71;73.68
49072;BME280;52656;52.610;10.236;2023-07-13T01:38:21;100870.31;;;16.72;73.06
49072;BME280;52656;52.610;10.236;2023-07-13T01:40:46;100861.44;;;16.72;72.78
49072;BME280;52656;52.610;10.236;2023-07-13T01:43:11;100867.81;;;16.69;74.62
49072;BME280;52656;52.610;10.236;2023-07-13T01:45:38;100859.38;;;16.61;73.16
49072;BME280;52656;52.610;10.236;2023-07-13T01:48:03;100858.81;;;16.56;74.46
49072;BME280;52656;52.610;10.236;2023-07-13T01:50:28;100867.31;;;16.48;72.81
49072;BME280;52656;52.610;10.236;2023-07-13T01:52:54;100864.06;;;16.43;74.29
49072;BME280;52656;52.610;10.236;2023-07-13T01:55:20;100864.34;;;16.39;73.15
49072;BME280;52656;52.610;10.236;2023-07-13T01:57:46;100862.81;;;16.35;73.77
49072;BME280;52656;52.610;10.236;2023-07-13T02:00:12;100858.72;;;16.29;76.18
49072;BME280;52656;52.610;10.236;2023-07-13T02:02:38;100859.00;;;16.24;73.84
49072;BME280;52656;52.610;10.236;2023-07-13T02:05:04;100864.91;;;16.15;76.71
49072;BME280;52656;52.610;10.236;2023-07-13T02:07:29;100870.66;;;16.09;75.21
49072;BME280;52656;52.610;10.236;2023-07-13T02:09:54;100862.97;;;16.03;77.74
49072;BME280;52656;52.610;10.236;2023-07-13T02:12:20;100865.31;;;16.09;75.73
49072;BME280;52656;52.610;10.236;2023-07-13T02:14:45;100871.81;;;16.19;77.25
49072;BME280;52656;52.610;10.236;2023-07-13T02:17:10;100875.63;;;16.30;74.53
49072;BME280;52656;52.610;10.236;2023-07-13T02:19:35;100868.94;;;16.37;75.75
49072;BME280;52656;52.610;10.236;2023-07-13T02:22:01;100872.59;;;16.36;73.84
49072;BME280;52656;52.610;10.236;2023-07-13T02:24:26;100880.78;;;16.33;75.44
49072;BME280;52656;52.610;10.236;2023-07-13T02:26:52;100873.22;;;16.25;73.87
49072;BME280;52656;52.610;10.236;2023-07-13T02:29:17;100874.84;;;16.13;76.48
49072;BME280;52656;52.610;10.236;2023-07-13T02:31:43;100884.19;;;16.06;75.02
49072;BME280;52656;52.610;10.236;2023-07-13T02:34:08;100879.41;;;15.97;76.92
49072;BME280;52656;52.610;10.236;2023-07-13T02:36:33;100876.16;;;15.92;74.93
49072;BME280;52656;52.610;10.236;2023-07-13T02:39:00;100879.38;;;15.83;77.12
49072;BME280;52656;52.610;10.236;2023-07-13T02:41:26;100887.81;;;15.75;76.11
49072;BME280;52656;52.610;10.236;2023-07-13T02:43:51;100881.38;;;15.63;78.36
49072;BME280;52656;52.610;10.236;2023-07-13T02:46:16;100883.25;;;15.61;76.82
49072;BME280;52656;52.610;10.236;2023-07-13T02:48:42;100880.59;;;15.61;79.21
49072;BME280;52656;52.610;10.236;2023-07-13T02:51:08;100882.13;;;15.65;76.76
49072;BME280;52656;52.610;10.236;2023-07-13T02:53:33;100878.50;;;15.66;78.55
49072;BME280;52656;52.610;10.236;2023-07-13T02:55:58;100879.28;;;15.68;77.14
49072;BME280;52656;52.610;10.236;2023-07-13T02:58:24;100895.50;;;15.65;78.36
49072;BME280;52656;52.610;10.236;2023-07-13T03:00:50;100894.53;;;15.66;76.40
49072;BME280;52656;52.610;10.236;2023-07-13T03:03:15;100890.16;;;15.65;78.49
49072;BME280;52656;52.610;10.236;2023-07-13T03:05:43;100893.41;;;15.70;76.33
49072;BME280;52656;52.610;10.236;2023-07-13T03:08:10;100885.31;;;15.72;76.56
49072;BME280;52656;52.610;10.236;2023-07-13T03:10:35;100895.78;;;15.77;75.76
49072;BME280;52656;52.610;10.236;2023-07-13T03:13:01;100888.06;;;15.70;78.00
49072;BME280;52656;52.610;10.236;2023-07-13T03:15:27;100891.69;;;15.69;76.25
49072;BME280;52656;52.610;10.236;2023-07-13T03:17:52;100886.63;;;15.65;77.65
49072;BME280;52656;52.610;10.236;2023-07-13T03:20:18;100886.78;;;15.62;76.05
49072;BME280;52656;52.610;10.236;2023-07-13T03:22:43;100890.69;;;15.56;77.90
49072;BME280;52656;52.610;10.236;2023-07-13T03:25:09;100887.25;;;15.54;76.05
49072;BME280;52656;52.610;10.236;2023-07-13T03:27:34;100890.19;;;15.49;78.50
49072;BME280;52656;52.610;10.236;2023-07-13T03:29:59;100887.44;;;15.51;76.69
49072;BME280;52656;52.610;10.236;2023-07-13T03:32:24;100892.00;;;15.49;78.36
49072;BME280;52656;52.610;10.236;2023-07-13T03:34:50;100892.06;;;15.47;76.62
49072;BME280;52656;52.610;10.236;2023-07-13T03:37:15;100900.03;;;15.49;78.46
49072;BME280;52656;52.610;10.236;2023-07-13T03:39:40;100900.09;;;15.47;77.52
49072;BME280;52656;52.610;10.236;2023-07-13T03:42:06;100905.88;;;15.40;79.70
49072;BME280;52656;52.610;10.236;2023-07-13T03:44:31;100909.66;;;15.52;77.50
49072;BME280;52656;52.610;10.236;2023-07-13T03:46:57;100902.16;;;15.58;78.39
49072;BME280;52656;52.610;10.236;2023-07-13T03:49:22;100894.63;;;15.81;76.61
49072;BME280;52656;52.610;10.236;2023-07-13T03:51:47;100889.81;;;16.02;77.00
49072;BME280;52656;52.610;10.236;2023-07-13T03:54:13;100895.47;;;16.25;74.63
49072;BME280;52656;52.610;10.236;2023-07-13T03:56:38;100895.97;;;16.46;75.59
49072;BME280;52656;52.610;10.236;2023-07-13T03:59:04;100893.53;;;16.72;72.62
49072;BME280;52656;52.610;10.236;2023-07-13T04:01:29;100899.25;;;16.94;72.21
49072;BME280;52656;52.610;10.236;2023-07-13T04:03:55;100894.00;;;17.20;70.37
49072;BME280;52656;52.610;10.236;2023-07-13T04:06:25;100886.69;;;17.36;69.26
49072;BME280;52656;52.610;10.236;2023-07-13T04:08:53;100893.97;;;17.61;68.18
49072;BME280;52656;52.610;10.236;2023-07-13T04:11:20;100908.19;;;17.89;67.23
49072;BME280;52656;52.610;10.236;2023-07-13T04:13:46;100900.63;;;18.21;65.85
49072;BME280;52656;52.610;10.236;2023-07-13T04:16:13;100902.47;;;18.46;64.95
49072;BME280;52656;52.610;10.236;2023-07-13T04:18:39;100906.63;;;18.75;63.83
49072;BME280;52656;52.610;10.236;2023-07-13T04:21:04;100904.78;;;19.25;61.53
49072;BME280;52656;52.610;10.236;2023-07-13T04:23:30;100901.38;;;20.42;58.44
49072;BME280;52656;52.610;10.236;2023-07-13T04:25:55;100895.47;;;21.70;53.25
49072;BME280;52656;52.610;10.236;2023-07-13T04:28:25;100902.22;;;22.99;50.05
49072;BME280;52656;52.610;10.236;2023-07-13T04:30:51;100903.91;;;24.09;46.93
49072;BME280;52656;52.610;10.236;2023-07-13T04:33:16;100900.38;;;25.20;44.56
49072;BME280;52656;52.610;10.236;2023-07-13T04:35:45;100896.44;;;25.77;42.47
49072;BME280;52656;52.610;10.236;2023-07-13T04:38:12;100887.28;;;26.82;40.92
49072;BME280;52656;52.610;10.236;2023-07-13T04:40:37;100886.38;;;27.00;39.74
49072;BME280;52656;52.610;10.236;2023-07-13T04:43:03;100888.97;;;26.23;41.29
49072;BME280;52656;52.610;10.236;2023-07-13T04:45:28;100891.31;;;26.36;41.09
49072;BME280;52656;52.610;10.236;2023-07-13T04:47:53;100896.47;;;26.81;40.24
49072;BME280;52656;52.610;10.236;2023-07-13T04:50:19;100901.84;;;27.74;37.68
49072;BME280;52656;52.610;10.236;2023-07-13T04:52:49;100896.91;;;28.11;36.66
49072;BME280;52656;52.610;10.236;2023-07-13T04:55:14;100899.38;;;28.69;35.89
49072;BME280;52656;52.610;10.236;2023-07-13T04:57:40;100893.41;;;29.13;34.94
49072;BME280;52656;52.610;10.236;2023-07-13T05:00:06;100890.91;;;29.89;34.25
49072;BME280;52656;52.610;10.236;2023-07-13T05:02:33;100908.94;;;30.50;32.95
49072;BME280;52656;52.610;10.236;2023-07-13T05:04:59;100894.03;;;31.12;31.75
49072;BME280;52656;52.610;10.236;2023-07-13T05:07:26;100899.31;;;31.71;30.70
49072;BME280;52656;52.610;10.236;2023-07-13T05:09:52;100896.94;;;32.11;30.23
49072;BME280;52656;52.610;10.236;2023-07-13T05:12:17;100889.94;;;32.30;29.59
49072;BME280;52656;52.610;10.236;2023-07-13T05:14:43;100894.75;;;32.56;29.83
49072;BME280;52656;52.610;10.236;2023-07-13T05:17:09;100890.16;;;32.98;28.52
49072;BME280;52656;52.610;10.236;2023-07-13T05:19:34;100889.91;;;33.54;27.50
49072;BME280;52656;52.610;10.236;2023-07-13T05:22:00;100882.94;;;34.38;26.54
49072;BME280;52656;52.610;10.236;2023-07-13T05:24:25;100879.69;;;34.74;26.30
49072;BME280;52656;52.610;10.236;2023-07-13T05:26:51;100891.66;;;33.75;26.56
49072;BME280;52656;52.610;10.236;2023-07-13T05:29:16;100887.25;;;34.07;26.02
49072;BME280;52656;52.610;10.236;2023-07-13T05:31:42;100892.47;;;34.28;25.93
49072;BME280;52656;52.610;10.236;2023-07-13T05:34:07;100899.50;;;34.11;26.26
49072;BME280;52656;52.610;10.236;2023-07-13T05:36:32;100904.28;;;34.75;25.00
49072;BME280;52656;52.610;10.236;2023-07-13T05:38:58;100904.75;;;34.39;25.43
49072;BME280;52656;52.610;10.236;2023-07-13T05:41:23;100905.81;;;35.16;24.34
49072;BME280;52656;52.610;10.236;2023-07-13T05:43:48;100898.50;;;34.90;24.44
49072;BME280;52656;52.610;10.236;2023-07-13T05:46:14;100908.47;;;34.91;24.67
49072;BME280;52656;52.610;10.236;2023-07-13T05:48:39;100911.00;;;34.93;24.43
49072;BME280;52656;52.610;10.236;2023-07-13T05:51:04;100912.06;;;34.98;24.28
49072;BME280;52656;52.610;10.236;2023-07-13T05:53:30;100913.31;;;35.02;24.31
49072;BME280;52656;52.610;10.236;2023-07-13T05:55:55;100914.06;;;33.85;25.29
49072;BME280;52656;52.610;10.236;2023-07-13T05:58:21;100919.13;;;34.54;24.39
49072;BME280;52656;52.610;10.236;2023-07-13T06:00:48;100925.84;;;35.43;23.94
49072;BME280;52656;52.610;10.236;2023-07-13T06:03:14;100922.59;;;35.01;23.90
49072;BME280;52656;52.610;10.236;2023-07-13T06:05:40;100927.09;;;34.89;23.76
49072;BME280;52656;52.610;10.236;2023-07-13T06:08:06;100930.97;;;34.55;24.28
49072;BME280;52656;52.610;10.236;2023-07-13T06:10:33;100933.72;;;33.89;24.68
49072;BME280;52656;52.610;10.236;2023-07-13T06:12:58;100933.69;;;33.82;24.76
49072;BME280;52656;52.610;10.236;2023-07-13T06:15:24;100933.09;;;34.00;24.41
49072;BME280;52656;52.610;10.236;2023-07-13T06:17:49;100932.16;;;34.92;23.77
49072;BME280;52656;52.610;10.236;2023-07-13T06:20:14;100936.28;;;34.10;24.83
49072;BME280;52656;52.610;10.236;2023-07-13T06:22:40;100941.13;;;33.95;24.60
49072;BME280;52656;52.610;10.236;2023-07-13T06:25:05;100932.56;;;31.90;27.14
49072;BME280;52656;52.610;10.236;2023-07-13T06:27:31;100948.72;;;31.99;27.05
49072;BME280;52656;52.610;10.236;2023-07-13T06:29:56;100951.53;;;31.48;27.47
49072;BME280;52656;52.610;10.236;2023-07-13T06:32:21;100946.66;;;31.65;27.14
49072;BME280;52656;52.610;10.236;2023-07-13T06:34:47;100951.19;;;32.72;25.75
49072;BME280;52656;52.610;10.236;2023-07-13T06:37:12;100952.25;;;30.01;29.35
49072;BME280;52656;52.610;10.236;2023-07-13T06:39:37;100948.91;;;32.75;25.83
49072;BME280;52656;52.610;10.236;2023-07-13T06:42:03;100943.97;;;35.06;23.56
49072;BME280;52656;52.610;10.236;2023-07-13T06:44:29;100942.59;;;36.05;22.09
49072;BME280;52656;52.610;10.236;2023-07-13T06:46:54;100944.22;;;36.63;21.73
49072;BME280;52656;52.610;10.236;2023-07-13T06:49:20;100950.91;;;38.00;20.35
49072;BME280;52656;52.610;10.236;2023-07-13T06:51:45;100940.09;;;37.27;20.61
49072;BME280;52656;52.610;10.236;2023-07-13T06:54:10;100944.72;;;36.28;21.42
49072;BME280;52656;52.610;10.236;2023-07-13T06:56:36;100949.63;;;37.61;20.16
49072;BME280;52656;52.610;10.236;2023-07-13T06:59:01;100952.44;;;36.88;20.81
49072;BME280;52656;52.610;10.236;2023-07-13T07:01:26;100955.44;;;37.04;20.67
49072;BME280;52656;52.610;10.236;2023-07-13T07:03:52;100953.88;;;36.72;21.10
49072;BME280;52656;52.610;10.236;2023-07-13T07:06:19;100945.38;;;36.92;20.89
49072;BME280;52656;52.610;10.236;2023-07-13T07:08:45;100954.03;;;34.47;23.40
49072;BME280;52656;52.610;10.236;2023-07-13T07:11:13;100957.69;;;32.64;25.56
49072;BME280;52656;52.610;10.236;2023-07-13T07:13:39;100952.41;;;35.18;22.93
49072;BME280;52656;52.610;10.236;2023-07-13T07:16:04;100961.03;;;35.28;22.36
49072;BME280;52656;52.610;10.236;2023-07-13T07:18:29;100956.16;;;35.75;22.09
49072;BME280;52656;52.610;10.236;2023-07-13T07:20:55;100953.22;;;36.01;21.79
49072;BME280;52656;52.610;10.236;2023-07-13T07:23:22;100953.91;;;35.14;22.81
49072;BME280;52656;52.610;10.236;2023-07-13T07:25:47;100958.50;;;33.41;24.54
49072;BME280;52656;52.610;10.236;2023-07-13T07:28:15;100966.50;;;34.10;23.71
49072;BME280;52656;52.610;10.236;2023-07-13T07:30:46;100962.25;;;33.94;24.12
49072;BME280;52656;52.610;10.236;2023-07-13T07:33:11;100963.47;;;33.58;24.70
49072;BME280;52656;52.610;10.236;2023-07-13T07:35:37;100965.41;;;38.14;19.79
49072;BME280;52656;52.610;10.236;2023-07-13T07:38:02;100963.25;;;36.21;21.86
49072;BME280;52656;52.610;10.236;2023-07-13T07:40:28;100959.44;;;33.54;24.28
49072;BME280;52656;52.610;10.236;2023-07-13T07:42:53;100964.19;;;35.45;22.36
49072;BME280;52656;52.610;10.236;2023-07-13T07:45:19;100958.09;;;38.43;19.38
49072;BME280;52656;52.610;10.236;2023-07-13T07:47:45;100948.09;;;36.05;21.59
49072;BME280;52656;52.610;10.236;2023-07-13T07:50:10;100949.81;;;39.19;19.00
49072;BME280;52656;52.610;10.236;2023-07-13T07:52:36;100944.59;;;40.42;17.46
49072;BME280;52656;52.610;10.236;2023-07-13T07:55:04;100938.44;;;37.38;20.37
49072;BME280;52656;52.610;10.236;2023-07-13T07:57:29;100956.56;;;34.42;22.72
49072;BME280;52656;52.610;10.236;2023-07-13T07:59:55;100957.59;;;32.86;25.06
49072;BME280;52656;52.610;10.236;2023-07-13T08:02:20;100958.19;;;31.82;26.03
49072;BME280;52656;52.610;10.236;2023-07-13T08:04:45;100955.75;;;32.37;25.70
49072;BME280;52656;52.610;10.236;2023-07-13T08:07:11;100948.84;;;32.41;25.96
49072;BME280;52656;52.610;10.236;2023-07-13T08:09:36;100952.81;;;31.89;26.64
49072;BME280;52656;52.610;10.236;2023-07-13T08:12:01;100950.47;;;30.98;27.95
49072;BME280;52656;52.610;10.236;2023-07-13T08:14:27;100964.25;;;30.15;28.63
49072;BME280;52656;52.610;10.236;2023-07-13T08:16:52;100965.88;;;29.78;29.24
49072;BME280;52656;52.610;10.236;2023-07-13T08:19:18;100963.50;;;29.75;29.23
49072;BME280;52656;52.610;10.236;2023-07-13T08:21:44;100960.03;;;29.19;30.20
49072;BME280;52656;52.610;10.236;2023-07-13T08:24:09;100961.28;;;32.99;25.13
49072;BME280;52656;52.610;10.236;2023-07-13T08:26:35;100960.28;;;31.58;26.43
49072;BME280;52656;52.610;10.236;2023-07-13T08:29:00;100956.53;;;33.82;23.96
49072;BME280;52656;52.610;10.236;2023-07-13T08:31:25;100947.09;;;35.99;21.87
49072;BME280;52656;52.610;10.236;2023-07-13T08:33:50;100953.75;;;35.53;22.19
49072;BME280;52656;52.610;10.236;2023-07-13T08:36:16;100947.88;;;38.44;19.53
49072;BME280;52656;52.610;10.236;2023-07-13T08:38:41;100947.59;;;35.00;23.13
49072;BME280;52656;52.610;10.236;2023-07-13T08:41:16;100963.66;;;33.09;24.64
49072;BME280;52656;52.610;10.236;2023-07-13T08:43:45;100964.53;;;36.68;20.99
49072;BME280;52656;52.610;10.236;2023-07-13T08:46:19;100961.09;;;37.28;20.34
49072;BME280;52656;52.610;10.236;2023-07-13T08:48:52;100961.06;;;36.04;21.70
49072;BME280;52656;52.610;10.236;2023-07-13T08:51:24;100958.59;;;38.75;18.81
49072;BME280;52656;52.610;10.236;2023-07-13T08:53:57;100956.34;;;40.15;17.42
49072;BME280;52656;52.610;10.236;2023-07-13T08:56:25;100949.66;;;39.66;18.38
49072;BME280;52656;52.610;10.236;2023-07-13T08:58:56;100962.47;;;37.19;20.34
49072;BME280;52656;52.610;10.236;2023-07-13T09:01:31;100960.69;;;38.03;19.45
49072;BME280;52656;52.610;10.236;2023-07-13T09:04:08;100953.66;;;37.28;19.94
49072;BME280;52656;52.610;10.236;2023-07-13T09:12:53;100955.69;;;35.78;22.15
49072;BME280;52656;52.610;10.236;2023-07-13T09:15:31;100964.41;;;34.39;23.65
49072;BME280;52656;52.610;10.236;2023-07-13T09:18:03;100959.31;;;33.28;24.42
49072;BME280;52656;52.610;10.236;2023-07-13T09:20:44;100960.91;;;33.09;24.94
49072;BME280;52656;52.610;10.236;2023-07-13T09:23:14;100958.34;;;35.15;22.96
49072;BME280;52656;52.610;10.236;2023-07-13T09:25:45;100967.53;;;34.82;22.97
49072;BME280;52656;52.610;10.236;2023-07-13T09:28:25;100973.09;;;37.22;20.73
49072;BME280;52656;52.610;10.236;2023-07-13T09:31:01;100969.09;;;39.25;19.16
49072;BME280;52656;52.610;10.236;2023-07-13T09:33:28;100961.97;;;39.29;18.89
49072;BME280;52656;52.610;10.236;2023-07-13T09:35:59;100959.69;;;36.14;21.86
49072;BME280;52656;52.610;10.236;2023-07-13T09:38:27;100963.88;;;37.10;21.50
49072;BME280;52656;52.610;10.236;2023-07-13T09:44:10;100953.72;;;40.59;18.07
49072;BME280;52656;52.610;10.236;2023-07-13T09:46:36;100959.16;;;41.10;17.52
49072;BME280;52656;52.610;10.236;2023-07-13T09:49:02;100957.38;;;37.22;20.86
49072;BME280;52656;52.610;10.236;2023-07-13T09:51:27;100962.88;;;38.24;20.08
49072;BME280;52656;52.610;10.236;2023-07-13T09:53:53;100951.69;;;36.55;20.85
49072;BME280;52656;52.610;10.236;2023-07-13T09:56:24;100965.50;;;36.55;21.00
49072;BME280;52656;52.610;10.236;2023-07-13T09:58:51;100955.81;;;37.26;20.11
49072;BME280;52656;52.610;10.236;2023-07-13T10:01:31;100948.69;;;36.39;21.29
49072;BME280;52656;52.610;10.236;2023-07-13T10:03:57;100969.06;;;35.74;21.62
49072;BME280;52656;52.610;10.236;2023-07-13T10:06:23;100970.22;;;36.23;21.70
49072;BME280;52656;52.610;10.236;2023-07-13T10:08:52;100962.06;;;37.22;20.48
49072;BME280;52656;52.610;10.236;2023-07-13T10:11:20;100970.56;;;37.39;20.55
49072;BME280;52656;52.610;10.236;2023-07-13T10:13:51;100954.09;;;37.44;20.23
49072;BME280;52656;52.610;10.236;2023-07-13T10:16:19;100964.53;;;37.42;21.01
49072;BME280;52656;52.610;10.236;2023-07-13T10:18:59;100952.28;;;34.93;22.27
49072;BME280;52656;52.610;10.236;2023-07-13T10:21:33;100969.47;;;34.15;23.58
49072;BME280;52656;52.610;10.236;2023-07-13T10:24:12;100957.94;;;35.63;22.59
49072;BME280;52656;52.610;10.236;2023-07-13T10:26:45;100950.47;;;35.25;22.44
49072;BME280;52656;52.610;10.236;2023-07-13T10:29:14;100964.00;;;34.55;23.08
49072;BME280;52656;52.610;10.236;2023-07-13T10:31:41;100954.97;;;36.46;21.48
49072;BME280;52656;52.610;10.236;2023-07-13T10:34:10;100962.81;;;37.59;20.88
49072;BME280;52656;52.610;10.236;2023-07-13T10:36:40;100954.06;;;36.27;21.92
49072;BME280;52656;52.610;10.236;2023-07-13T10:39:15;100951.28;;;34.47;23.05
49072;BME280;52656;52.610;10.236;2023-07-13T10:41:42;100953.19;;;35.38;22.34
49072;BME280;52656;52.610;10.236;2023-07-13T10:44:18;100956.06;;;35.05;22.62
49072;BME280;52656;52.610;10.236;2023-07-13T10:46:44;100958.28;;;35.28;22.25
49072;BME280;52656;52.610;10.236;2023-07-13T10:49:10;100959.44;;;36.22;22.12
49072;BME280;52656;52.610;10.236;2023-07-13T10:51:37;100943.09;;;35.95;21.84
49072;BME280;52656;52.610;10.236;2023-07-13T10:56:43;100954.09;;;35.64;21.73
49072;BME280;52656;52.610;10.236;2023-07-13T11:01:49;100940.94;;;34.10;23.72
49072;BME280;52656;52.610;10.236;2023-07-13T11:04:15;100947.09;;;32.61;25.12
49072;BME280;52656;52.610;10.236;2023-07-13T11:06:42;100957.84;;;31.70;26.13
49072;BME280;52656;52.610;10.236;2023-07-13T11:09:24;100956.69;;;31.07;26.65
49072;BME280;52656;52.610;10.236;2023-07-13T11:11:56;100968.28;;;30.79;26.87
49072;BME280;52656;52.610;10.236;2023-07-13T11:16:53;100962.75;;;29.89;28.41
49072;BME280;52656;52.610;10.236;2023-07-13T11:24:52;100970.69;;;29.45;30.11
49072;BME280;52656;52.610;10.236;2023-07-13T11:27:44;100954.97;;;29.47;29.46
49072;BME280;52656;52.610;10.236;2023-07-13T11:35:37;100968.72;;;29.22;28.73
49072;BME280;52656;52.610;10.236;2023-07-13T11:40:54;100960.69;;;29.60;28.91
49072;BME280;52656;52.610;10.236;2023-07-13T11:43:21;100965.47;;;29.66;29.23
49072;BME280;52656;52.610;10.236;2023-07-13T11:45:49;100964.63;;;29.35;27.90
49072;BME280;52656;52.610;10.236;2023-07-13T11:48:23;100964.66;;;29.18;28.32
49072;BME280;52656;52.610;10.236;2023-07-13T11:50:51;100964.94;;;29.40;28.55
49072;BME280;52656;52.610;10.236;2023-07-13T11:53:18;100956.38;;;29.66;28.45
49072;BME280;52656;52.610;10.236;2023-07-13T11:55:44;100959.75;;;29.84;28.64
49072;BME280;52656;52.610;10.236;2023-07-13T11:58:10;100955.22;;;29.91;27.70
49072;BME280;52656;52.610;10.236;2023-07-13T12:00:37;100960.19;;;30.11;27.62
49072;BME280;52656;52.610;10.236;2023-07-13T12:03:03;100953.56;;;30.05;27.20
49072;BME280;52656;52.610;10.236;2023-07-13T12:05:30;100969.09;;;29.81;27.80
49072;BME280;52656;52.610;10.236;2023-07-13T12:07:56;100961.69;;;29.67;27.64
49072;BME280;52656;52.610;10.236;2023-07-13T12:10:26;100970.13;;;29.57;27.94
49072;BME280;52656;52.610;10.236;2023-07-13T12:13:00;100973.66;;;29.27;28.08
49072;BME280;52656;52.610;10.236;2023-07-13T12:15:44;100972.81;;;29.35;28.00
49072;BME280;52656;52.610;10.236;2023-07-13T12:18:22;100975.84;;;29.40;27.99
49072;BME280;52656;52.610;10.236;2023-07-13T12:20:49;100969.75;;;29.21;27.78
49072;BME280;52656;52.610;10.236;2023-07-13T12:23:29;100971.00;;;29.11;27.90
49072;BME280;52656;52.610;10.236;2023-07-13T12:25:55;100979.75;;;28.98;28.20
49072;BME280;52656;52.610;10.236;2023-07-13T12:28:40;100979.16;;;28.71;28.70
49072;BME280;52656;52.610;10.236;2023-07-13T12:31:40;100972.78;;;28.79;28.60
49072;BME280;52656;52.610;10.236;2023-07-13T12:34:14;100979.31;;;29.17;28.71
49072;BME280;52656;52.610;10.236;2023-07-13T12:39:35;100977.03;;;28.98;29.76
49072;BME280;52656;52.610;10.236;2023-07-13T12:44:57;100960.72;;;28.73;29.28
49072;BME280;52656;52.610;10.236;2023-07-13T12:47:24;100979.47;;;28.76;28.78
49072;BME280;52656;52.610;10.236;2023-07-13T12:49:54;100969.69;;;28.98;29.00
49072;BME280;52656;52.610;10.236;2023-07-13T12:52:28;100975.69;;;29.33;28.19
49072;BME280;52656;52.610;10.236;2023-07-13T12:55:18;100976.53;;;29.33;28.70
49072;BME280;52656;52.610;10.236;2023-07-13T12:57:51;100964.63;;;29.35;28.76
49072;BME280;52656;52.610;10.236;2023-07-13T13:02:53;100966.53;;;29.18;28.48
49072;BME280;52656;52.610;10.236;2023-07-13T13:05:21;100963.81;;;29.18;28.57
49072;BME280;52656;52.610;10.236;2023-07-13T13:07:49;100970.50;;;29.07;28.58
49072;BME280;52656;52.610;10.236;2023-07-13T13:10:14;100967.44;;;29.02;28.54
49072;BME280;52656;52.610;10.236;2023-07-13T13:12:40;100988.28;;;28.87;29.60
49072;BME280;52656;52.610;10.236;2023-07-13T13:15:12;100989.75;;;29.14;29.90
49072;BME280;52656;52.610;10.236;2023-07-13T13:17:38;100983.09;;;29.16;29.68
49072;BME280;52656;52.610;10.236;2023-07-13T13:20:20;100981.38;;;29.15;29.91
49072;BME280;52656;52.610;10.236;2023-07-13T13:22:46;100985.03;;;28.91;30.37